createdAt,value
2024-01-06T00:04:47.223Z,5.67
2024-01-06T00:09:49.163Z,5.58
2024-01-06T00:14:50.720Z,4.69
2024-01-06T00:19:52.633Z,5.39
2024-01-06T00:24:54.398Z,5.35
2024-01-06T00:29:55.925Z,5.45
2024-01-06T00:34:57.496Z,5.54
2024-01-06T00:40:00.580Z,5.80
2024-01-06T00:45:02.202Z,5.86
2024-01-06T00:50:03.781Z,5.29
2024-01-06T00:55:05.430Z,5.93
2024-01-06T01:00:07.271Z,5.28
2024-01-06T01:05:08.942Z,4.84
2024-01-06T01:10:10.891Z,5.25
2024-01-06T01:15:14.062Z,5.18
2024-01-06T01:20:15.593Z,5.96
2024-01-06T01:25:17.106Z,4.91
2024-01-06T01:30:18.736Z,5.66
2024-01-06T01:35:20.316Z,6.19
2024-01-06T01:40:21.829Z,5.65
2024-01-06T01:45:23.448Z,5.51
2024-01-06T01:50:28.676Z,5.29
2024-01-06T01:55:30.216Z,5.23
2024-01-06T02:00:31.848Z,5.24
2024-01-06T02:05:33.497Z,5.70
2024-01-06T02:10:35.186Z,5.39
2024-01-06T02:15:36.861Z,5.59
2024-01-06T02:20:38.560Z,4.55
2024-01-06T02:25:40.100Z,4.87
2024-01-06T02:30:41.764Z,5.31
2024-01-06T02:35:43.371Z,5.04
2024-01-06T02:40:44.955Z,4.95
2024-01-06T02:45:47.917Z,5.81
2024-01-06T02:50:49.554Z,5.31
2024-01-06T02:55:51.049Z,6.03
2024-01-06T03:00:52.581Z,5.21
2024-01-06T03:05:54.143Z,5.12
2024-01-06T03:10:55.678Z,4.82
2024-01-06T03:15:57.232Z,5.71
2024-01-06T03:20:58.781Z,5.39
2024-01-06T03:26:02.177Z,5.80
2024-01-06T03:31:03.810Z,5.58
2024-01-06T03:36:07.313Z,5.68
2024-01-06T03:41:08.819Z,5.37
2024-01-06T03:46:10.350Z,4.85
2024-01-06T03:51:13.661Z,5.06
2024-01-06T03:56:15.267Z,5.86
2024-01-06T04:01:16.800Z,5.58
2024-01-06T04:06:18.911Z,5.63
2024-01-06T04:11:20.455Z,5.71
2024-01-06T04:16:21.995Z,5.92
2024-01-06T04:21:23.529Z,5.47
2024-01-06T04:26:25.860Z,5.91
2024-01-06T04:31:27.413Z,5.40
2024-01-06T04:36:28.962Z,5.58
2024-01-06T04:41:30.497Z,5.85
2024-01-06T04:46:32.074Z,5.97
2024-01-06T04:51:33.664Z,5.63
2024-01-06T04:56:36.773Z,5.42
2024-01-06T05:01:38.735Z,5.55
2024-01-06T05:06:40.316Z,5.51
2024-01-06T05:11:41.924Z,5.53
2024-01-06T05:16:43.548Z,4.84
2024-01-06T05:21:45.092Z,5.84
2024-01-06T05:26:47.566Z,5.65
2024-01-06T05:31:56.706Z,5.65
2024-01-06T05:36:58.294Z,5.56
2024-01-06T05:41:59.807Z,6.28
2024-01-06T05:47:01.311Z,5.35
2024-01-06T05:52:02.800Z,6.37
2024-01-06T05:57:07.100Z,5.15
2024-01-06T06:02:08.739Z,5.94
2024-01-06T06:07:10.367Z,5.65
2024-01-06T06:12:11.997Z,5.99
2024-01-06T06:17:13.549Z,5.91
2024-01-06T06:22:15.136Z,5.49
2024-01-06T06:27:16.644Z,5.53
2024-01-06T06:32:18.205Z,5.11
2024-01-06T06:37:19.721Z,5.50
2024-01-06T06:42:21.326Z,5.16
2024-01-06T06:47:23.199Z,5.51
2024-01-06T06:52:24.716Z,4.97
2024-01-06T06:57:26.309Z,5.82
2024-01-06T07:02:28.050Z,5.81
2024-01-06T07:07:29.610Z,6.12
2024-01-06T07:12:31.165Z,6.08
2024-01-06T07:17:32.832Z,5.89
2024-01-06T07:22:35.824Z,5.53
2024-01-06T07:27:37.441Z,4.94
2024-01-06T07:32:39.243Z,4.91
2024-01-06T07:37:40.779Z,5.34
2024-01-06T07:42:42.507Z,6.02
2024-01-06T07:47:44.118Z,5.23
2024-01-06T07:52:45.724Z,6.03
2024-01-06T07:57:47.275Z,5.26
2024-01-06T08:02:48.826Z,4.47
2024-01-06T08:07:51.934Z,4.28
2024-01-06T08:12:55.096Z,5.01
2024-01-06T08:17:56.748Z,4.59
2024-01-06T08:22:58.301Z,5.63
2024-01-06T08:28:00.082Z,5.02
2024-01-06T08:33:02.684Z,5.90
2024-01-06T08:38:04.321Z,6.06
2024-01-06T08:43:05.814Z,6.09
2024-01-06T08:48:07.703Z,5.85
2024-01-06T08:53:09.227Z,5.65
2024-01-06T08:58:10.728Z,6.14
2024-01-06T09:03:13.676Z,5.68
2024-01-06T09:08:15.399Z,5.26
2024-01-06T09:13:16.908Z,5.21
2024-01-06T09:18:18.548Z,5.23
2024-01-06T09:23:22.537Z,4.71
2024-01-06T09:28:25.723Z,4.89
2024-01-06T09:33:27.331Z,4.82
2024-01-06T09:38:28.899Z,5.84
2024-01-06T09:43:31.361Z,5.94
2024-01-06T09:48:33.112Z,5.31
2024-01-06T09:53:35.596Z,5.97
2024-01-06T09:58:37.846Z,5.74
2024-01-06T10:03:39.538Z,4.92
2024-01-06T10:08:44.188Z,5.94
2024-01-06T10:13:45.684Z,5.98
2024-01-06T10:18:51.441Z,5.55
2024-01-06T10:23:55.652Z,5.30
2024-01-06T10:28:57.426Z,5.10
2024-01-06T10:33:59.034Z,5.81
2024-01-06T10:39:01.968Z,5.70
2024-01-06T10:44:03.863Z,5.55
2024-01-06T10:49:06.507Z,5.55
2024-01-06T10:54:08.038Z,5.76
2024-01-06T10:59:09.649Z,4.20
2024-01-06T11:04:12.054Z,5.29
2024-01-06T11:09:22.542Z,5.38
2024-01-06T11:14:29.098Z,5.15
2024-01-06T11:19:38.065Z,5.11
2024-01-06T11:24:40.329Z,5.45
2024-01-06T11:29:44.537Z,5.23
2024-01-06T11:34:50.067Z,6.11
2024-01-06T11:39:51.704Z,5.13
2024-01-06T11:44:53.240Z,5.31
2024-01-06T11:49:55.424Z,5.46
2024-01-06T11:54:57.046Z,4.34
2024-01-06T11:59:58.684Z,4.88
2024-01-06T12:05:00.286Z,5.96
2024-01-06T12:10:03.139Z,6.22
2024-01-06T12:15:05.477Z,6.49
2024-01-06T12:20:09.813Z,5.43
2024-01-06T12:25:11.400Z,5.40
2024-01-06T12:30:20.403Z,6.06
2024-01-06T12:35:22.652Z,5.73
2024-01-06T12:40:24.268Z,5.90
2024-01-06T12:45:29.094Z,5.94
2024-01-06T12:50:30.668Z,5.61
2024-01-06T12:55:32.242Z,5.91
2024-01-06T13:00:37.076Z,6.25
2024-01-06T13:05:39.041Z,5.67
2024-01-06T13:10:40.588Z,5.44
2024-01-06T13:15:42.229Z,5.42
2024-01-06T13:20:44.506Z,4.57
2024-01-06T13:25:46.003Z,4.66
2024-01-06T13:30:47.766Z,5.15
2024-01-06T13:35:49.331Z,5.29
2024-01-06T13:40:50.833Z,5.48
2024-01-06T13:45:52.427Z,4.40
2024-01-06T13:50:53.926Z,5.19
2024-01-06T13:55:55.782Z,5.11
2024-01-06T14:00:57.510Z,3.82
2024-01-06T14:05:59.163Z,4.69
2024-01-06T14:11:00.700Z,5.43
2024-01-06T14:16:02.534Z,4.29
2024-01-06T14:21:04.309Z,5.11
2024-01-06T14:26:05.850Z,4.67
2024-01-06T14:31:07.432Z,4.08
2024-01-06T14:36:09.428Z,4.83
2024-01-06T14:41:10.943Z,4.14
2024-01-06T14:46:12.450Z,5.35
2024-01-06T14:51:13.996Z,4.69
2024-01-06T14:56:15.567Z,4.54
2024-01-06T15:01:17.106Z,4.61
2024-01-06T15:06:18.893Z,4.92
2024-01-06T15:11:20.528Z,4.99
2024-01-06T15:16:22.030Z,4.35
2024-01-06T15:21:24.382Z,4.82
2024-01-06T15:26:26.076Z,4.90
2024-01-06T15:31:29.125Z,4.69
2024-01-06T15:36:30.811Z,4.33
2024-01-06T15:41:32.395Z,4.42
2024-01-06T15:46:33.896Z,4.16
2024-01-06T15:51:35.475Z,4.44
2024-01-06T15:56:37.066Z,5.13
2024-01-06T16:01:38.732Z,4.93
2024-01-06T16:06:41.283Z,4.76
2024-01-06T16:11:42.953Z,4.13
2024-01-06T16:16:44.474Z,4.70
2024-01-06T16:21:46.433Z,3.58
2024-01-06T16:26:47.961Z,3.41
2024-01-06T16:31:49.773Z,3.77
2024-01-06T16:36:51.433Z,3.77
2024-01-06T16:41:53.310Z,3.52
2024-01-06T16:46:58.205Z,3.57
2024-01-06T16:51:59.874Z,3.94
2024-01-06T16:57:03.738Z,2.96
2024-01-06T17:02:05.346Z,3.59
2024-01-06T17:07:07.731Z,4.37
2024-01-06T17:12:09.300Z,4.09
2024-01-06T17:17:10.847Z,4.30
2024-01-06T17:22:12.360Z,3.28
2024-01-06T17:27:14.637Z,3.36
2024-01-06T17:32:16.201Z,3.54
2024-01-06T17:37:17.785Z,3.71
2024-01-06T17:42:19.486Z,4.11
2024-01-06T17:47:21.376Z,3.01
2024-01-06T17:52:27.097Z,3.56
2024-01-06T17:57:34.246Z,3.43
2024-01-06T18:02:38.672Z,3.04
2024-01-06T18:07:40.900Z,3.33
2024-01-06T18:12:42.770Z,3.36
2024-01-06T18:17:44.454Z,3.22
2024-01-06T18:22:46.019Z,3.65
2024-01-06T18:27:47.600Z,3.41
2024-01-06T18:32:49.310Z,3.62
2024-01-06T18:37:50.991Z,2.96
2024-01-06T18:42:53.068Z,3.65
2024-01-06T18:47:54.647Z,3.28
2024-01-06T18:52:56.229Z,3.32
2024-01-06T18:57:57.750Z,3.69
2024-01-06T19:02:59.972Z,3.24
2024-01-06T19:08:01.733Z,3.51
2024-01-06T19:13:03.620Z,3.77
2024-01-06T19:18:06.434Z,3.13
2024-01-06T19:23:10.144Z,3.18
2024-01-06T19:28:11.945Z,3.20
2024-01-06T19:33:13.582Z,3.12
2024-01-06T19:38:20.029Z,3.09
2024-01-06T19:43:22.615Z,4.07
2024-01-06T19:48:24.406Z,4.01
2024-01-06T19:53:26.125Z,3.37
2024-01-06T19:58:27.633Z,4.00
2024-01-06T20:03:29.241Z,3.12
2024-01-06T20:08:31.059Z,3.41
2024-01-06T20:13:32.581Z,3.38
2024-01-06T20:18:34.303Z,3.54
2024-01-06T20:23:36.143Z,2.87
2024-01-06T20:28:37.749Z,3.87
2024-01-06T20:33:39.480Z,3.53
2024-01-06T20:38:42.650Z,3.23
2024-01-06T20:43:44.231Z,2.70
2024-01-06T20:48:46.946Z,2.81
2024-01-06T20:53:48.936Z,3.55
2024-01-06T20:58:50.492Z,2.89
2024-01-06T21:03:56.309Z,2.98
2024-01-06T21:08:57.932Z,4.04
2024-01-06T21:13:59.460Z,3.69
2024-01-06T21:19:01.057Z,3.41
2024-01-06T21:24:02.618Z,3.99
2024-01-06T21:29:04.774Z,3.95
2024-01-06T21:34:06.365Z,4.10
2024-01-06T21:39:08.093Z,3.77
2024-01-06T21:44:09.611Z,4.47
2024-01-06T21:49:11.245Z,4.54
2024-01-06T21:54:12.801Z,4.01
2024-01-06T21:59:14.414Z,4.54
2024-01-06T22:04:16.087Z,4.74
2024-01-06T22:14:19.559Z,3.80
2024-01-06T22:19:21.105Z,3.93
2024-01-06T22:24:24.397Z,3.86
2024-01-06T22:29:25.934Z,4.67
2024-01-06T22:34:27.652Z,3.32
2024-01-06T22:39:29.294Z,3.82
2024-01-06T22:44:30.850Z,4.83
2024-01-06T22:49:32.492Z,3.71
2024-01-06T22:54:34.130Z,4.08
2024-01-06T22:59:35.660Z,4.37
2024-01-06T23:04:38.017Z,3.96
2024-01-06T23:09:39.942Z,4.52
2024-01-06T23:14:41.656Z,3.84
2024-01-06T23:19:46.045Z,3.73
2024-01-06T23:24:48.007Z,3.62
2024-01-06T23:29:49.525Z,3.74
2024-01-06T23:34:51.107Z,4.33
2024-01-06T23:39:52.720Z,3.08
2024-01-06T23:44:54.942Z,3.99
2024-01-06T23:49:56.481Z,3.60
2024-01-06T23:54:58.071Z,4.04
2024-01-06T23:59:59.627Z,4.45
